sensor_id;sensor_type;location;lat;lon;timestamp;temperature;humidity
13606;DHT22;6874;52.084;5.090;2023-11-19T00:00:36;11.50;99.90
13606;DHT22;6874;52.084;5.090;2023-11-19T00:03:01;11.50;99.90
13606;DHT22;6874;52.084;5.090;2023-11-19T00:05:27;11.50;99.90
13606;DHT22;6874;52.084;5.090;2023-11-19T00:07:55;11.50;99.90
13606;DHT22;6874;52.084;5.090;2023-11-19T00:10:21;11.50;99.90
13606;DHT22;6874;52.084;5.090;2023-11-19T00:12:48;11.50;99.90
13606;DHT22;6874;52.084;5.090;2023-11-19T00:15:15;11.50;99.90
13606;DHT22;6874;52.084;5.090;2023-11-19T00:17:41;11.60;99.90
13606;DHT22;6874;52.084;5.090;2023-11-19T00:20:14;11.60;99.90
13606;DHT22;6874;52.084;5.090;2023-11-19T00:22:40;11.60;99.90
13606;DHT22;6874;52.084;5.090;2023-11-19T00:25:06;11.60;99.90
13606;DHT22;6874;52.084;5.090;2023-11-19T00:27:32;11.60;99.90
13606;DHT22;6874;52.084;5.090;2023-11-19T00:29:57;11.60;99.90
13606;DHT22;6874;52.084;5.090;2023-11-19T00:32:23;11.60;99.90
13606;DHT22;6874;52.084;5.090;2023-11-19T00:34:48;11.60;99.90
13606;DHT22;6874;52.084;5.090;2023-11-19T00:37:14;11.60;99.90
13606;DHT22;6874;52.084;5.090;2023-11-19T00:39:43;11.70;99.90
13606;DHT22;6874;52.084;5.090;2023-11-19T00:42:09;11.60;99.90
13606;DHT22;6874;52.084;5.090;2023-11-19T00:44:37;11.70;99.90
13606;DHT22;6874;52.084;5.090;2023-11-19T00:47:03;11.60;99.90
13606;DHT22;6874;52.084;5.090;2023-11-19T00:49:30;11.70;99.90
13606;DHT22;6874;52.084;5.090;2023-11-19T00:51:58;11.70;99.90
13606;DHT22;6874;52.084;5.090;2023-11-19T00:54:24;11.70;99.90
13606;DHT22;6874;52.084;5.090;2023-11-19T00:56:54;11.70;99.90
13606;DHT22;6874;52.084;5.090;2023-11-19T00:59:19;11.70;99.90
13606;DHT22;6874;52.084;5.090;2023-11-19T01:01:45;11.70;99.90
13606;DHT22;6874;52.084;5.090;2023-11-19T01:04:13;11.70;99.90
13606;DHT22;6874;52.084;5.090;2023-11-19T01:06:39;11.70;99.90
13606;DHT22;6874;52.084;5.090;2023-11-19T01:09:05;11.70;99.90
13606;DHT22;6874;52.084;5.090;2023-11-19T01:11:31;11.70;99.90
13606;DHT22;6874;52.084;5.090;2023-11-19T01:13:57;11.70;99.90
13606;DHT22;6874;52.084;5.090;2023-11-19T01:16:22;11.70;99.90
13606;DHT22;6874;52.084;5.090;2023-11-19T01:18:48;11.70;99.90
13606;DHT22;6874;52.084;5.090;2023-11-19T01:21:14;11.70;99.90
13606;DHT22;6874;52.084;5.090;2023-11-19T01:23:40;11.70;99.90
13606;DHT22;6874;52.084;5.090;2023-11-19T01:26:08;11.70;99.90
13606;DHT22;6874;52.084;5.090;2023-11-19T01:28:35;11.70;99.90
13606;DHT22;6874;52.084;5.090;2023-11-19T01:31:01;11.70;99.90
13606;DHT22;6874;52.084;5.090;2023-11-19T01:33:26;11.70;99.90
13606;DHT22;6874;52.084;5.090;2023-11-19T01:35:53;11.70;99.90
13606;DHT22;6874;52.084;5.090;2023-11-19T01:38:18;11.70;99.90
13606;DHT22;6874;52.084;5.090;2023-11-19T01:40:44;11.70;99.90
13606;DHT22;6874;52.084;5.090;2023-11-19T01:43:10;11.70;99.90
13606;DHT22;6874;52.084;5.090;2023-11-19T01:45:37;11.70;99.90
13606;DHT22;6874;52.084;5.090;2023-11-19T01:48:04;11.70;99.90
13606;DHT22;6874;52.084;5.090;2023-11-19T01:50:30;11.70;99.90
13606;DHT22;6874;52.084;5.090;2023-11-19T01:52:57;11.70;99.90
13606;DHT22;6874;52.084;5.090;2023-11-19T01:55:24;11.70;99.90
13606;DHT22;6874;52.084;5.090;2023-11-19T01:57:51;11.70;99.90
13606;DHT22;6874;52.084;5.090;2023-11-19T02:00:18;11.70;99.90
13606;DHT22;6874;52.084;5.090;2023-11-19T02:02:46;11.70;99.90
13606;DHT22;6874;52.084;5.090;2023-11-19T02:05:13;11.70;99.90
13606;DHT22;6874;52.084;5.090;2023-11-19T02:07:39;11.60;99.90
13606;DHT22;6874;52.084;5.090;2023-11-19T02:10:06;11.60;99.90
13606;DHT22;6874;52.084;5.090;2023-11-19T02:12:33;11.60;99.90
13606;DHT22;6874;52.084;5.090;2023-11-19T02:15:00;11.60;99.90
13606;DHT22;6874;52.084;5.090;2023-11-19T02:17:29;11.50;99.90
13606;DHT22;6874;52.084;5.090;2023-11-19T02:19:59;11.50;99.90
13606;DHT22;6874;52.084;5.090;2023-11-19T02:22:25;11.50;99.90
13606;DHT22;6874;52.084;5.090;2023-11-19T02:25:00;11.50;99.90
13606;DHT22;6874;52.084;5.090;2023-11-19T02:27:53;11.50;99.90
13606;DHT22;6874;52.084;5.090;2023-11-19T02:30:21;11.50;99.90
13606;DHT22;6874;52.084;5.090;2023-11-19T02:32:52;11.50;99.90
13606;DHT22;6874;52.084;5.090;2023-11-19T02:35:18;11.40;99.90
13606;DHT22;6874;52.084;5.090;2023-11-19T02:37:43;11.40;99.90
13606;DHT22;6874;52.084;5.090;2023-11-19T02:40:10;11.30;99.90
13606;DHT22;6874;52.084;5.090;2023-11-19T02:42:36;11.40;99.90
13606;DHT22;6874;52.084;5.090;2023-11-19T02:45:02;11.40;99.90
13606;DHT22;6874;52.084;5.090;2023-11-19T02:47:31;11.30;99.90
13606;DHT22;6874;52.084;5.090;2023-11-19T02:49:56;11.40;99.90
13606;DHT22;6874;52.084;5.090;2023-11-19T02:52:23;11.40;99.90
13606;DHT22;6874;52.084;5.090;2023-11-19T02:54:50;11.30;99.90
13606;DHT22;6874;52.084;5.090;2023-11-19T02:57:16;11.30;99.90
13606;DHT22;6874;52.084;5.090;2023-11-19T02:59:44;11.30;99.90
13606;DHT22;6874;52.084;5.090;2023-11-19T03:02:10;11.30;99.90
13606;DHT22;6874;52.084;5.090;2023-11-19T03:04:41;11.30;99.90
13606;DHT22;6874;52.084;5.090;2023-11-19T03:07:08;11.30;99.90
13606;DHT22;6874;52.084;5.090;2023-11-19T03:09:34;11.30;99.90
13606;DHT22;6874;52.084;5.090;2023-11-19T03:12:01;11.20;99.90
13606;DHT22;6874;52.084;5.090;2023-11-19T03:14:27;11.20;99.90
13606;DHT22;6874;52.084;5.090;2023-11-19T03:16:53;11.20;99.90
13606;DHT22;6874;52.084;5.090;2023-11-19T03:19:18;11.20;99.90
13606;DHT22;6874;52.084;5.090;2023-11-19T03:21:44;11.20;99.90
13606;DHT22;6874;52.084;5.090;2023-11-19T03:24:12;11.20;99.90
13606;DHT22;6874;52.084;5.090;2023-11-19T03:26:38;11.20;99.90
13606;DHT22;6874;52.084;5.090;2023-11-19T03:29:03;11.10;99.90
13606;DHT22;6874;52.084;5.090;2023-11-19T03:31:29;11.10;99.90
13606;DHT22;6874;52.084;5.090;2023-11-19T03:33:54;11.10;99.90
13606;DHT22;6874;52.084;5.090;2023-11-19T03:36:20;11.10;99.90
13606;DHT22;6874;52.084;5.090;2023-11-19T03:38:45;11.10;99.90
13606;DHT22;6874;52.084;5.090;2023-11-19T03:41:15;11.00;99.90
13606;DHT22;6874;52.084;5.090;2023-11-19T03:43:41;11.00;99.90
13606;DHT22;6874;52.084;5.090;2023-11-19T03:46:18;11.00;99.90
13606;DHT22;6874;52.084;5.090;2023-11-19T03:48:43;11.00;99.90
13606;DHT22;6874;52.084;5.090;2023-11-19T03:51:09;11.00;99.90
13606;DHT22;6874;52.084;5.090;2023-11-19T03:53:34;10.90;99.90
13606;DHT22;6874;52.084;5.090;2023-11-19T03:56:01;10.90;99.90
13606;DHT22;6874;52.084;5.090;2023-11-19T03:58:26;10.90;99.90
13606;DHT22;6874;52.084;5.090;2023-11-19T04:00:52;10.90;99.90
13606;DHT22;6874;52.084;5.090;2023-11-19T04:03:17;10.90;99.90
13606;DHT22;6874;52.084;5.090;2023-11-19T04:05:45;10.80;99.90
13606;DHT22;6874;52.084;5.090;2023-11-19T04:08:10;10.80;99.90
13606;DHT22;6874;52.084;5.090;2023-11-19T04:10:36;10.80;99.90
13606;DHT22;6874;52.084;5.090;2023-11-19T04:13:01;10.80;99.90
13606;DHT22;6874;52.084;5.090;2023-11-19T04:15:27;10.80;99.90
13606;DHT22;6874;52.084;5.090;2023-11-19T04:17:53;10.80;99.90
13606;DHT22;6874;52.084;5.090;2023-11-19T04:20:18;10.80;99.90
13606;DHT22;6874;52.084;5.090;2023-11-19T04:22:44;10.80;99.90
13606;DHT22;6874;52.084;5.090;2023-11-19T04:25:09;10.80;99.90
13606;DHT22;6874;52.084;5.090;2023-11-19T04:27:36;10.70;99.90
13606;DHT22;6874;52.084;5.090;2023-11-19T04:30:02;10.70;99.90
13606;DHT22;6874;52.084;5.090;2023-11-19T04:32:29;10.70;99.90
13606;DHT22;6874;52.084;5.090;2023-11-19T04:34:54;10.70;99.90
13606;DHT22;6874;52.084;5.090;2023-11-19T04:37:20;10.70;99.90
13606;DHT22;6874;52.084;5.090;2023-11-19T04:39:45;10.60;99.90
13606;DHT22;6874;52.084;5.090;2023-11-19T04:42:11;10.60;99.90
13606;DHT22;6874;52.084;5.090;2023-11-19T04:44:37;10.60;99.90
13606;DHT22;6874;52.084;5.090;2023-11-19T04:47:03;10.60;99.90
13606;DHT22;6874;52.084;5.090;2023-11-19T04:49:29;10.60;99.90
13606;DHT22;6874;52.084;5.090;2023-11-19T04:51:55;10.60;99.90
13606;DHT22;6874;52.084;5.090;2023-11-19T04:54:21;10.60;99.90
13606;DHT22;6874;52.084;5.090;2023-11-19T04:56:47;10.60;99.90
13606;DHT22;6874;52.084;5.090;2023-11-19T04:59:12;10.50;99.90
13606;DHT22;6874;52.084;5.090;2023-11-19T05:01:38;10.60;99.90
13606;DHT22;6874;52.084;5.090;2023-11-19T05:04:04;10.50;99.90
13606;DHT22;6874;52.084;5.090;2023-11-19T05:06:30;10.50;99.90
13606;DHT22;6874;52.084;5.090;2023-11-19T05:08:58;10.50;99.90
13606;DHT22;6874;52.084;5.090;2023-11-19T05:11:26;10.50;99.90
13606;DHT22;6874;52.084;5.090;2023-11-19T05:13:53;10.50;99.90
13606;DHT22;6874;52.084;5.090;2023-11-19T05:16:19;10.50;99.90
13606;DHT22;6874;52.084;5.090;2023-11-19T05:18:46;10.50;99.90
13606;DHT22;6874;52.084;5.090;2023-11-19T05:21:12;10.40;99.90
13606;DHT22;6874;52.084;5.090;2023-11-19T05:23:38;10.40;99.90
13606;DHT22;6874;52.084;5.090;2023-11-19T05:26:04;10.40;99.90
13606;DHT22;6874;52.084;5.090;2023-11-19T05:28:30;10.40;99.90
13606;DHT22;6874;52.084;5.090;2023-11-19T05:30:56;10.40;99.90
13606;DHT22;6874;52.084;5.090;2023-11-19T05:33:21;10.40;99.90
13606;DHT22;6874;52.084;5.090;2023-11-19T05:35:47;10.30;99.90
13606;DHT22;6874;52.084;5.090;2023-11-19T05:38:13;10.30;99.90
13606;DHT22;6874;52.084;5.090;2023-11-19T05:40:38;10.40;99.90
13606;DHT22;6874;52.084;5.090;2023-11-19T05:43:04;10.30;99.90
13606;DHT22;6874;52.084;5.090;2023-11-19T05:45:31;10.30;99.90
13606;DHT22;6874;52.084;5.090;2023-11-19T05:47:57;10.30;99.90
13606;DHT22;6874;52.084;5.090;2023-11-19T05:50:23;10.30;99.90
13606;DHT22;6874;52.084;5.090;2023-11-19T05:52:48;10.30;99.90
13606;DHT22;6874;52.084;5.090;2023-11-19T05:55:14;10.30;99.90
13606;DHT22;6874;52.084;5.090;2023-11-19T05:57:39;10.30;99.90
13606;DHT22;6874;52.084;5.090;2023-11-19T06:00:06;10.20;99.90
13606;DHT22;6874;52.084;5.090;2023-11-19T06:02:35;10.20;99.90
13606;DHT22;6874;52.084;5.090;2023-11-19T06:05:03;10.20;99.90
13606;DHT22;6874;52.084;5.090;2023-11-19T06:07:31;10.20;99.90
13606;DHT22;6874;52.084;5.090;2023-11-19T06:09:56;10.20;99.90
13606;DHT22;6874;52.084;5.090;2023-11-19T06:12:22;10.20;99.90
13606;DHT22;6874;52.084;5.090;2023-11-19T06:14:47;10.20;99.90
13606;DHT22;6874;52.084;5.090;2023-11-19T06:17:13;10.20;99.90
13606;DHT22;6874;52.084;5.090;2023-11-19T06:19:39;10.20;99.90
13606;DHT22;6874;52.084;5.090;2023-11-19T06:22:04;10.10;99.90
13606;DHT22;6874;52.084;5.090;2023-11-19T06:24:30;10.20;99.90
13606;DHT22;6874;52.084;5.090;2023-11-19T06:26:55;10.10;99.90
13606;DHT22;6874;52.084;5.090;2023-11-19T06:29:21;10.20;99.90
13606;DHT22;6874;52.084;5.090;2023-11-19T06:31:47;10.10;99.90
13606;DHT22;6874;52.084;5.090;2023-11-19T06:34:15;10.10;99.90
13606;DHT22;6874;52.084;5.090;2023-11-19T06:36:41;10.10;99.90
13606;DHT22;6874;52.084;5.090;2023-11-19T06:39:09;10.10;99.90
13606;DHT22;6874;52.084;5.090;2023-11-19T06:41:34;10.10;99.90
13606;DHT22;6874;52.084;5.090;2023-11-19T06:44:00;10.10;99.90
13606;DHT22;6874;52.084;5.090;2023-11-19T06:46:25;10.10;99.90
13606;DHT22;6874;52.084;5.090;2023-11-19T06:48:51;10.10;99.90
13606;DHT22;6874;52.084;5.090;2023-11-19T06:51:16;10.00;99.90
13606;DHT22;6874;52.084;5.090;2023-11-19T06:53:45;10.00;99.90
13606;DHT22;6874;52.084;5.090;2023-11-19T06:56:23;10.00;99.90
13606;DHT22;6874;52.084;5.090;2023-11-19T06:58:50;10.00;99.90
13606;DHT22;6874;52.084;5.090;2023-11-19T07:01:16;10.00;99.90
13606;DHT22;6874;52.084;5.090;2023-11-19T07:03:46;10.00;99.90
13606;DHT22;6874;52.084;5.090;2023-11-19T07:06:12;10.00;99.90
13606;DHT22;6874;52.084;5.090;2023-11-19T07:08:43;10.00;99.90
13606;DHT22;6874;52.084;5.090;2023-11-19T07:11:13;10.00;99.90
13606;DHT22;6874;52.084;5.090;2023-11-19T07:13:42;10.00;99.90
13606;DHT22;6874;52.084;5.090;2023-11-19T07:16:08;10.00;99.90
13606;DHT22;6874;52.084;5.090;2023-11-19T07:18:36;10.00;99.90
13606;DHT22;6874;52.084;5.090;2023-11-19T07:21:03;9.90;99.90
13606;DHT22;6874;52.084;5.090;2023-11-19T07:23:29;9.90;99.90
13606;DHT22;6874;52.084;5.090;2023-11-19T07:25:55;9.90;99.90
13606;DHT22;6874;52.084;5.090;2023-11-19T07:28:20;9.90;99.90
13606;DHT22;6874;52.084;5.090;2023-11-19T07:30:46;9.90;99.90
13606;DHT22;6874;52.084;5.090;2023-11-19T07:33:11;9.90;99.90
13606;DHT22;6874;52.084;5.090;2023-11-19T07:35:39;9.90;99.90
13606;DHT22;6874;52.084;5.090;2023-11-19T07:38:06;9.90;99.90
13606;DHT22;6874;52.084;5.090;2023-11-19T07:40:32;9.90;99.90
13606;DHT22;6874;52.084;5.090;2023-11-19T07:42:57;9.90;99.90
13606;DHT22;6874;52.084;5.090;2023-11-19T07:45:23;9.90;99.90
13606;DHT22;6874;52.084;5.090;2023-11-19T07:47:48;9.90;99.90
13606;DHT22;6874;52.084;5.090;2023-11-19T07:50:16;10.00;99.90
13606;DHT22;6874;52.084;5.090;2023-11-19T07:52:44;10.00;99.90
13606;DHT22;6874;52.084;5.090;2023-11-19T07:55:10;10.00;99.90
13606;DHT22;6874;52.084;5.090;2023-11-19T07:57:35;10.00;99.90
13606;DHT22;6874;52.084;5.090;2023-11-19T08:00:02;10.00;99.90
13606;DHT22;6874;52.084;5.090;2023-11-19T08:02:28;10.00;99.90
13606;DHT22;6874;52.084;5.090;2023-11-19T08:04:54;10.00;99.90
13606;DHT22;6874;52.084;5.090;2023-11-19T08:07:20;10.00;99.90
13606;DHT22;6874;52.084;5.090;2023-11-19T08:09:46;10.00;99.90
13606;DHT22;6874;52.084;5.090;2023-11-19T08:12:12;10.00;99.90
13606;DHT22;6874;52.084;5.090;2023-11-19T08:14:40;10.10;99.90
13606;DHT22;6874;52.084;5.090;2023-11-19T08:17:07;10.10;99.90
13606;DHT22;6874;52.084;5.090;2023-11-19T08:19:32;10.00;99.90
13606;DHT22;6874;52.084;5.090;2023-11-19T08:21:58;10.10;99.90
13606;DHT22;6874;52.084;5.090;2023-11-19T08:24:23;10.20;99.90
13606;DHT22;6874;52.084;5.090;2023-11-19T08:26:49;10.10;99.90
13606;DHT22;6874;52.084;5.090;2023-11-19T08:29:15;10.10;99.90
13606;DHT22;6874;52.084;5.090;2023-11-19T08:31:40;10.10;99.90
13606;DHT22;6874;52.084;5.090;2023-11-19T08:34:06;10.10;99.90
13606;DHT22;6874;52.084;5.090;2023-11-19T08:36:34;10.20;99.90
13606;DHT22;6874;52.084;5.090;2023-11-19T08:39:00;10.20;99.90
13606;DHT22;6874;52.084;5.090;2023-11-19T08:41:25;10.20;99.90
13606;DHT22;6874;52.084;5.090;2023-11-19T08:43:52;10.20;99.90
13606;DHT22;6874;52.084;5.090;2023-11-19T08:46:43;10.30;99.90
13606;DHT22;6874;52.084;5.090;2023-11-19T08:49:11;10.30;99.90
13606;DHT22;6874;52.084;5.090;2023-11-19T08:51:54;10.20;99.90
13606;DHT22;6874;52.084;5.090;2023-11-19T08:54:19;10.30;99.90
13606;DHT22;6874;52.084;5.090;2023-11-19T08:56:46;10.30;99.90
13606;DHT22;6874;52.084;5.090;2023-11-19T08:59:12;10.30;99.90
13606;DHT22;6874;52.084;5.090;2023-11-19T09:01:38;10.30;99.90
13606;DHT22;6874;52.084;5.090;2023-11-19T09:04:03;10.40;99.90
13606;DHT22;6874;52.084;5.090;2023-11-19T09:06:30;10.30;99.90
13606;DHT22;6874;52.084;5.090;2023-11-19T09:08:55;10.40;99.90
13606;DHT22;6874;52.084;5.090;2023-11-19T09:11:25;10.40;99.90
13606;DHT22;6874;52.084;5.090;2023-11-19T09:13:51;10.40;99.90
13606;DHT22;6874;52.084;5.090;2023-11-19T09:16:17;10.40;99.90
13606;DHT22;6874;52.084;5.090;2023-11-19T09:18:42;10.50;99.90
13606;DHT22;6874;52.084;5.090;2023-11-19T09:21:08;10.50;99.90
13606;DHT22;6874;52.084;5.090;2023-11-19T09:23:39;10.50;99.90
13606;DHT22;6874;52.084;5.090;2023-11-19T09:26:06;10.50;99.90
13606;DHT22;6874;52.084;5.090;2023-11-19T09:28:36;10.50;99.90
13606;DHT22;6874;52.084;5.090;2023-11-19T09:31:21;10.60;99.90
13606;DHT22;6874;52.084;5.090;2023-11-19T09:33:50;10.60;99.90
13606;DHT22;6874;52.084;5.090;2023-11-19T09:36:17;10.60;99.90
13606;DHT22;6874;52.084;5.090;2023-11-19T09:38:44;10.60;99.90
13606;DHT22;6874;52.084;5.090;2023-11-19T09:41:10;10.60;99.90
13606;DHT22;6874;52.084;5.090;2023-11-19T09:43:39;10.60;99.90
13606;DHT22;6874;52.084;5.090;2023-11-19T09:46:06;10.60;99.90
13606;DHT22;6874;52.084;5.090;2023-11-19T09:48:36;10.70;99.90
13606;DHT22;6874;52.084;5.090;2023-11-19T09:51:06;10.70;99.90
13606;DHT22;6874;52.084;5.090;2023-11-19T09:53:32;10.70;99.90
13606;DHT22;6874;52.084;5.090;2023-11-19T09:56:05;10.70;99.90
13606;DHT22;6874;52.084;5.090;2023-11-19T09:58:32;10.80;99.90
13606;DHT22;6874;52.084;5.090;2023-11-19T10:01:00;10.80;99.90
13606;DHT22;6874;52.084;5.090;2023-11-19T10:03:33;10.80;99.90
13606;DHT22;6874;52.084;5.090;2023-11-19T10:06:01;10.80;99.90
13606;DHT22;6874;52.084;5.090;2023-11-19T10:08:26;10.90;99.90
13606;DHT22;6874;52.084;5.090;2023-11-19T10:10:53;11.00;99.90
13606;DHT22;6874;52.084;5.090;2023-11-19T10:13:19;10.90;99.90
13606;DHT22;6874;52.084;5.090;2023-11-19T10:15:45;11.00;99.90
13606;DHT22;6874;52.084;5.090;2023-11-19T10:18:14;11.00;99.90
13606;DHT22;6874;52.084;5.090;2023-11-19T10:20:41;11.20;99.90
13606;DHT22;6874;52.084;5.090;2023-11-19T10:23:07;11.10;99.90
13606;DHT22;6874;52.084;5.090;2023-11-19T10:25:33;11.10;99.90
13606;DHT22;6874;52.084;5.090;2023-11-19T10:27:59;11.10;99.90
13606;DHT22;6874;52.084;5.090;2023-11-19T10:30:30;11.10;99.90
13606;DHT22;6874;52.084;5.090;2023-11-19T10:33:05;11.20;99.90
13606;DHT22;6874;52.084;5.090;2023-11-19T10:35:33;11.20;99.90
13606;DHT22;6874;52.084;5.090;2023-11-19T10:38:01;11.20;99.90
13606;DHT22;6874;52.084;5.090;2023-11-19T10:40:38;11.20;99.90
13606;DHT22;6874;52.084;5.090;2023-11-19T10:43:05;11.20;99.90
13606;DHT22;6874;52.084;5.090;2023-11-19T10:45:31;11.30;99.90
13606;DHT22;6874;52.084;5.090;2023-11-19T10:47:59;11.30;99.90
13606;DHT22;6874;52.084;5.090;2023-11-19T10:50:26;11.30;99.90
13606;DHT22;6874;52.084;5.090;2023-11-19T10:52:56;11.30;99.90
13606;DHT22;6874;52.084;5.090;2023-11-19T10:55:27;11.30;99.90
13606;DHT22;6874;52.084;5.090;2023-11-19T10:58:04;11.30;99.90
13606;DHT22;6874;52.084;5.090;2023-11-19T11:00:52;11.30;99.90
13606;DHT22;6874;52.084;5.090;2023-11-19T11:03:21;11.40;99.90
13606;DHT22;6874;52.084;5.090;2023-11-19T11:05:51;11.40;99.90
13606;DHT22;6874;52.084;5.090;2023-11-19T11:08:17;11.40;99.90
13606;DHT22;6874;52.084;5.090;2023-11-19T11:10:45;11.40;99.90
13606;DHT22;6874;52.084;5.090;2023-11-19T11:13:13;11.40;99.90
13606;DHT22;6874;52.084;5.090;2023-11-19T11:15:39;11.50;99.90
13606;DHT22;6874;52.084;5.090;2023-11-19T11:18:08;11.50;99.90
13606;DHT22;6874;52.084;5.090;2023-11-19T11:20:34;11.50;99.90
13606;DHT22;6874;52.084;5.090;2023-11-19T11:29:05;11.60;99.90
13606;DHT22;6874;52.084;5.090;2023-11-19T11:31:48;11.60;99.90
13606;DHT22;6874;52.084;5.090;2023-11-19T11:36:52;11.60;99.90
13606;DHT22;6874;52.084;5.090;2023-11-19T11:39:22;11.60;99.90
13606;DHT22;6874;52.084;5.090;2023-11-19T11:41:47;11.50;99.90
13606;DHT22;6874;52.084;5.090;2023-11-19T11:45:09;11.60;99.90
13606;DHT22;6874;52.084;5.090;2023-11-19T11:53:17;11.60;99.90
13606;DHT22;6874;52.084;5.090;2023-11-19T11:58:22;11.70;99.90
13606;DHT22;6874;52.084;5.090;2023-11-19T12:00:51;11.60;99.90
13606;DHT22;6874;52.084;5.090;2023-11-19T12:03:20;11.60;99.90
13606;DHT22;6874;52.084;5.090;2023-11-19T12:05:47;11.70;99.90
13606;DHT22;6874;52.084;5.090;2023-11-19T12:08:13;11.70;99.90
13606;DHT22;6874;52.084;5.090;2023-11-19T12:10:50;11.70;99.90
13606;DHT22;6874;52.084;5.090;2023-11-19T12:13:17;11.70;99.90
13606;DHT22;6874;52.084;5.090;2023-11-19T12:18:23;11.80;99.90
13606;DHT22;6874;52.084;5.090;2023-11-19T12:20:50;11.80;99.90
13606;DHT22;6874;52.084;5.090;2023-11-19T12:23:16;11.80;99.90
13606;DHT22;6874;52.084;5.090;2023-11-19T12:25:41;11.80;99.90
13606;DHT22;6874;52.084;5.090;2023-11-19T12:28:12;11.90;99.90
13606;DHT22;6874;52.084;5.090;2023-11-19T12:30:38;11.90;99.90
13606;DHT22;6874;52.084;5.090;2023-11-19T12:33:08;12.00;99.90
13606;DHT22;6874;52.084;5.090;2023-11-19T12:35:44;11.90;99.90
13606;DHT22;6874;52.084;5.090;2023-11-19T12:40:46;12.00;99.90
13606;DHT22;6874;52.084;5.090;2023-11-19T12:43:21;12.00;99.90
13606;DHT22;6874;52.084;5.090;2023-11-19T12:45:48;12.00;99.90
13606;DHT22;6874;52.084;5.090;2023-11-19T12:48:13;12.00;99.90
13606;DHT22;6874;52.084;5.090;2023-11-19T12:51:10;12.00;99.90
13606;DHT22;6874;52.084;5.090;2023-11-19T12:53:53;12.00;99.90
13606;DHT22;6874;52.084;5.090;2023-11-19T12:56:24;12.00;99.90
13606;DHT22;6874;52.084;5.090;2023-11-19T12:58:50;12.00;99.90
13606;DHT22;6874;52.084;5.090;2023-11-19T13:01:17;12.00;99.90
13606;DHT22;6874;52.084;5.090;2023-11-19T13:03:44;12.00;99.90
13606;DHT22;6874;52.084;5.090;2023-11-19T13:06:12;12.00;99.90
13606;DHT22;6874;52.084;5.090;2023-11-19T13:08:46;12.00;99.90
13606;DHT22;6874;52.084;5.090;2023-11-19T13:11:15;12.00;99.90
13606;DHT22;6874;52.084;5.090;2023-11-19T13:14:04;12.00;99.90
13606;DHT22;6874;52.084;5.090;2023-11-19T13:16:31;12.00;99.90
13606;DHT22;6874;52.084;5.090;2023-11-19T13:22:04;12.00;99.90
13606;DHT22;6874;52.084;5.090;2023-11-19T13:24:30;12.00;99.90
13606;DHT22;6874;52.084;5.090;2023-11-19T13:26:56;12.00;99.90
13606;DHT22;6874;52.084;5.090;2023-11-19T13:29:26;12.00;99.90
13606;DHT22;6874;52.084;5.090;2023-11-19T13:31:53;12.00;99.90
13606;DHT22;6874;52.084;5.090;2023-11-19T13:34:19;12.00;99.90
13606;DHT22;6874;52.084;5.090;2023-11-19T13:36:44;12.00;99.90
13606;DHT22;6874;52.084;5.090;2023-11-19T13:39:10;12.00;99.90
13606;DHT22;6874;52.084;5.090;2023-11-19T13:41:37;12.10;99.90
13606;DHT22;6874;52.084;5.090;2023-11-19T13:44:03;12.10;99.90
13606;DHT22;6874;52.084;5.090;2023-11-19T13:46:28;12.10;99.90
13606;DHT22;6874;52.084;5.090;2023-11-19T13:48:55;12.10;99.90
13606;DHT22;6874;52.084;5.090;2023-11-19T13:51:21;12.10;99.90
13606;DHT22;6874;52.084;5.090;2023-11-19T13:53:47;12.10;99.90
13606;DHT22;6874;52.084;5.090;2023-11-19T13:56:13;12.10;99.90
13606;DHT22;6874;52.084;5.090;2023-11-19T13:58:38;12.10;99.90
13606;DHT22;6874;52.084;5.090;2023-11-19T14:01:06;12.10;99.90
13606;DHT22;6874;52.084;5.090;2023-11-19T14:03:31;12.10;99.90
13606;DHT22;6874;52.084;5.090;2023-11-19T14:05:59;12.10;99.90
13606;DHT22;6874;52.084;5.090;2023-11-19T14:08:24;12.10;99.90
13606;DHT22;6874;52.084;5.090;2023-11-19T14:10:55;12.10;99.90
13606;DHT22;6874;52.084;5.090;2023-11-19T14:13:25;12.00;99.90
13606;DHT22;6874;52.084;5.090;2023-11-19T14:15:51;12.10;99.90
13606;DHT22;6874;52.084;5.090;2023-11-19T14:18:17;12.10;99.90
13606;DHT22;6874;52.084;5.090;2023-11-19T14:20:43;12.10;99.90
13606;DHT22;6874;52.084;5.090;2023-11-19T14:23:09;12.10;99.90
13606;DHT22;6874;52.084;5.090;2023-11-19T14:25:36;12.10;99.90
13606;DHT22;6874;52.084;5.090;2023-11-19T14:28:06;12.00;99.90
13606;DHT22;6874;52.084;5.090;2023-11-19T14:30:31;12.10;99.90
13606;DHT22;6874;52.084;5.090;2023-11-19T14:32:57;12.00;99.90
13606;DHT22;6874;52.084;5.090;2023-11-19T14:35:23;12.10;99.90
13606;DHT22;6874;52.084;5.090;2023-11-19T14:37:50;12.00;99.90
13606;DHT22;6874;52.084;5.090;2023-11-19T14:40:20;12.10;99.90
13606;DHT22;6874;52.084;5.090;2023-11-19T14:42:46;12.00;99.90
13606;DHT22;6874;52.084;5.090;2023-11-19T14:45:14;12.00;99.90
13606;DHT22;6874;52.084;5.090;2023-11-19T14:47:46;12.00;99.90
13606;DHT22;6874;52.084;5.090;2023-11-19T14:50:26;12.00;99.90
13606;DHT22;6874;52.084;5.090;2023-11-19T14:52:53;12.00;99.90
13606;DHT22;6874;52.084;5.090;2023-11-19T14:55:19;12.00;99.90
13606;DHT22;6874;52.084;5.090;2023-11-19T14:57:45;11.90;99.90
13606;DHT22;6874;52.084;5.090;2023-11-19T15:00:11;11.90;99.90
13606;DHT22;6874;52.084;5.090;2023-11-19T15:02:40;12.00;99.90
13606;DHT22;6874;52.084;5.090;2023-11-19T15:05:07;12.00;99.90
13606;DHT22;6874;52.084;5.090;2023-11-19T15:07:37;12.00;99.90
13606;DHT22;6874;52.084;5.090;2023-11-19T15:10:03;12.00;99.90
13606;DHT22;6874;52.084;5.090;2023-11-19T15:12:29;12.10;99.90
13606;DHT22;6874;52.084;5.090;2023-11-19T15:14:55;12.10;99.90
13606;DHT22;6874;52.084;5.090;2023-11-19T15:17:20;12.10;99.90
13606;DHT22;6874;52.084;5.090;2023-11-19T15:19:46;12.10;99.90
13606;DHT22;6874;52.084;5.090;2023-11-19T15:22:12;12.10;99.90
13606;DHT22;6874;52.084;5.090;2023-11-19T15:24:38;12.10;99.90
13606;DHT22;6874;52.084;5.090;2023-11-19T15:27:05;12.00;99.90
13606;DHT22;6874;52.084;5.090;2023-11-19T15:29:31;12.00;99.90
13606;DHT22;6874;52.084;5.090;2023-11-19T15:31:59;12.00;99.90
13606;DHT22;6874;52.084;5.090;2023-11-19T15:34:25;12.00;99.90
13606;DHT22;6874;52.084;5.090;2023-11-19T15:36:51;12.00;99.90
13606;DHT22;6874;52.084;5.090;2023-11-19T15:39:16;11.90;99.90
13606;DHT22;6874;52.084;5.090;2023-11-19T15:41:42;12.00;99.90
13606;DHT22;6874;52.084;5.090;2023-11-19T15:44:07;12.00;99.90
13606;DHT22;6874;52.084;5.090;2023-11-19T15:46:33;12.00;99.90
13606;DHT22;6874;52.084;5.090;2023-11-19T15:48:58;12.00;99.90
13606;DHT22;6874;52.084;5.090;2023-11-19T15:51:24;11.90;99.90
13606;DHT22;6874;52.084;5.090;2023-11-19T15:53:50;12.00;99.90
13606;DHT22;6874;52.084;5.090;2023-11-19T15:56:15;11.90;99.90
13606;DHT22;6874;52.084;5.090;2023-11-19T15:58:41;11.90;99.90
13606;DHT22;6874;52.084;5.090;2023-11-19T16:01:07;11.90;99.90
13606;DHT22;6874;52.084;5.090;2023-11-19T16:03:33;11.90;99.90
13606;DHT22;6874;52.084;5.090;2023-11-19T16:05:59;11.90;99.90
13606;DHT22;6874;52.084;5.090;2023-11-19T16:08:25;11.90;99.90
13606;DHT22;6874;52.084;5.090;2023-11-19T16:10:50;11.90;99.90
13606;DHT22;6874;52.084;5.090;2023-11-19T16:13:16;11.80;99.90